sensor_id;sensor_type;location;lat;lon;timestamp;P1;durP1;ratioP1;P2;durP2;ratioP2
8881;SDS011;4477;48.736;9.176;2023-01-29T00:01:45;12.30;;;11.10;;
8881;SDS011;4477;48.736;9.176;2023-01-29T00:04:12;12.07;;;10.77;;
8881;SDS011;4477;48.736;9.176;2023-01-29T00:06:39;12.37;;;10.83;;
8881;SDS011;4477;48.736;9.176;2023-01-29T00:09:06;11.90;;;10.70;;
8881;SDS011;4477;48.736;9.176;2023-01-29T00:11:33;12.97;;;11.00;;
8881;SDS011;4477;48.736;9.176;2023-01-29T00:14:00;12.87;;;11.57;;
8881;SDS011;4477;48.736;9.176;2023-01-29T00:16:27;12.13;;;10.90;;
8881;SDS011;4477;48.736;9.176;2023-01-29T00:18:55;14.90;;;11.97;;
8881;SDS011;4477;48.736;9.176;2023-01-29T00:21:22;12.90;;;11.60;;
8881;SDS011;4477;48.736;9.176;2023-01-29T00:23:50;13.40;;;12.00;;
8881;SDS011;4477;48.736;9.176;2023-01-29T00:26:17;12.20;;;11.03;;
8881;SDS011;4477;48.736;9.176;2023-01-29T00:28:43;13.10;;;11.60;;
8881;SDS011;4477;48.736;9.176;2023-01-29T00:31:11;12.77;;;11.43;;
8881;SDS011;4477;48.736;9.176;2023-01-29T00:33:39;14.60;;;13.10;;
8881;SDS011;4477;48.736;9.176;2023-01-29T00:36:09;13.93;;;12.13;;
8881;SDS011;4477;48.736;9.176;2023-01-29T00:38:37;14.33;;;12.83;;
8881;SDS011;4477;48.736;9.176;2023-01-29T00:41:05;14.10;;;12.60;;
8881;SDS011;4477;48.736;9.176;2023-01-29T00:43:46;14.90;;;12.87;;
8881;SDS011;4477;48.736;9.176;2023-01-29T00:46:30;14.17;;;12.33;;
8881;SDS011;4477;48.736;9.176;2023-01-29T00:48:57;13.17;;;11.70;;
8881;SDS011;4477;48.736;9.176;2023-01-29T00:51:25;13.00;;;11.70;;
8881;SDS011;4477;48.736;9.176;2023-01-29T00:53:52;12.30;;;11.00;;
8881;SDS011;4477;48.736;9.176;2023-01-29T00:56:22;13.30;;;11.70;;
8881;SDS011;4477;48.736;9.176;2023-01-29T00:58:49;13.47;;;12.07;;
8881;SDS011;4477;48.736;9.176;2023-01-29T01:01:15;12.87;;;11.57;;
8881;SDS011;4477;48.736;9.176;2023-01-29T01:04:04;13.23;;;11.83;;
8881;SDS011;4477;48.736;9.176;2023-01-29T01:06:31;13.10;;;11.70;;
8881;SDS011;4477;48.736;9.176;2023-01-29T01:08:58;12.73;;;11.43;;
8881;SDS011;4477;48.736;9.176;2023-01-29T01:11:42;13.50;;;12.10;;
8881;SDS011;4477;48.736;9.176;2023-01-29T01:14:09;13.53;;;12.13;;
8881;SDS011;4477;48.736;9.176;2023-01-29T01:16:36;13.47;;;11.77;;
8881;SDS011;4477;48.736;9.176;2023-01-29T01:19:03;14.63;;;11.37;;
8881;SDS011;4477;48.736;9.176;2023-01-29T01:21:32;13.37;;;11.97;;
8881;SDS011;4477;48.736;9.176;2023-01-29T01:23:59;12.10;;;10.87;;
8881;SDS011;4477;48.736;9.176;2023-01-29T01:26:25;12.33;;;11.13;;
8881;SDS011;4477;48.736;9.176;2023-01-29T01:28:52;12.77;;;11.43;;
8881;SDS011;4477;48.736;9.176;2023-01-29T01:31:19;11.53;;;10.33;;
8881;SDS011;4477;48.736;9.176;2023-01-29T01:33:46;13.03;;;11.23;;
8881;SDS011;4477;48.736;9.176;2023-01-29T01:36:15;13.10;;;10.67;;
8881;SDS011;4477;48.736;9.176;2023-01-29T01:38:44;12.20;;;10.93;;
8881;SDS011;4477;48.736;9.176;2023-01-29T01:41:10;12.13;;;10.43;;
8881;SDS011;4477;48.736;9.176;2023-01-29T01:43:51;12.70;;;11.50;;
8881;SDS011;4477;48.736;9.176;2023-01-29T01:46:19;12.27;;;11.07;;
8881;SDS011;4477;48.736;9.176;2023-01-29T01:48:47;12.07;;;10.67;;
8881;SDS011;4477;48.736;9.176;2023-01-29T01:51:17;12.00;;;10.80;;
8881;SDS011;4477;48.736;9.176;2023-01-29T01:53:50;12.33;;;11.13;;
8881;SDS011;4477;48.736;9.176;2023-01-29T01:56:22;12.23;;;10.97;;
8881;SDS011;4477;48.736;9.176;2023-01-29T01:58:53;12.83;;;11.50;;
8881;SDS011;4477;48.736;9.176;2023-01-29T02:01:21;12.07;;;10.87;;
8881;SDS011;4477;48.736;9.176;2023-01-29T02:03:54;11.60;;;10.40;;
8881;SDS011;4477;48.736;9.176;2023-01-29T02:06:42;11.50;;;10.40;;
8881;SDS011;4477;48.736;9.176;2023-01-29T02:09:30;13.00;;;11.50;;
8881;SDS011;4477;48.736;9.176;2023-01-29T02:12:00;11.70;;;10.50;;
8881;SDS011;4477;48.736;9.176;2023-01-29T02:14:28;12.60;;;11.30;;
8881;SDS011;4477;48.736;9.176;2023-01-29T02:16:56;12.10;;;10.90;;
8881;SDS011;4477;48.736;9.176;2023-01-29T02:19:26;12.67;;;10.97;;
8881;SDS011;4477;48.736;9.176;2023-01-29T02:22:05;11.73;;;10.53;;
8881;SDS011;4477;48.736;9.176;2023-01-29T02:24:58;13.37;;;10.90;;
8881;SDS011;4477;48.736;9.176;2023-01-29T02:30:40;11.63;;;10.43;;
8881;SDS011;4477;48.736;9.176;2023-01-29T02:33:13;11.80;;;10.70;;
8881;SDS011;4477;48.736;9.176;2023-01-29T02:35:50;12.40;;;11.20;;
8881;SDS011;4477;48.736;9.176;2023-01-29T02:38:22;11.93;;;10.33;;
8881;SDS011;4477;48.736;9.176;2023-01-29T02:40:56;13.53;;;11.60;;
8881;SDS011;4477;48.736;9.176;2023-01-29T02:43:29;11.30;;;10.17;;
8881;SDS011;4477;48.736;9.176;2023-01-29T02:46:08;11.77;;;10.57;;
8881;SDS011;4477;48.736;9.176;2023-01-29T02:48:42;11.87;;;10.67;;
8881;SDS011;4477;48.736;9.176;2023-01-29T02:51:16;11.67;;;10.47;;
8881;SDS011;4477;48.736;9.176;2023-01-29T02:53:47;11.97;;;10.23;;
8881;SDS011;4477;48.736;9.176;2023-01-29T02:56:20;11.67;;;10.47;;
8881;SDS011;4477;48.736;9.176;2023-01-29T02:58:56;11.57;;;10.33;;
8881;SDS011;4477;48.736;9.176;2023-01-29T03:01:27;11.50;;;9.90;;
8881;SDS011;4477;48.736;9.176;2023-01-29T03:03:58;12.20;;;10.90;;
8881;SDS011;4477;48.736;9.176;2023-01-29T03:06:30;15.10;;;11.20;;
8881;SDS011;4477;48.736;9.176;2023-01-29T03:09:01;11.43;;;10.27;;
8881;SDS011;4477;48.736;9.176;2023-01-29T03:11:33;12.37;;;10.43;;
8881;SDS011;4477;48.736;9.176;2023-01-29T03:14:05;12.27;;;10.37;;
8881;SDS011;4477;48.736;9.176;2023-01-29T03:16:38;11.30;;;10.10;;
8881;SDS011;4477;48.736;9.176;2023-01-29T03:19:10;12.03;;;10.83;;
8881;SDS011;4477;48.736;9.176;2023-01-29T03:21:42;11.90;;;10.63;;
8881;SDS011;4477;48.736;9.176;2023-01-29T03:24:20;11.90;;;10.77;;
8881;SDS011;4477;48.736;9.176;2023-01-29T03:27:09;12.53;;;11.23;;
8881;SDS011;4477;48.736;9.176;2023-01-29T03:29:57;11.20;;;9.97;;
8881;SDS011;4477;48.736;9.176;2023-01-29T03:32:43;12.13;;;10.83;;
8881;SDS011;4477;48.736;9.176;2023-01-29T03:35:13;12.53;;;11.33;;
8881;SDS011;4477;48.736;9.176;2023-01-29T03:37:57;12.57;;;10.57;;
8881;SDS011;4477;48.736;9.176;2023-01-29T03:40:26;10.90;;;9.60;;
8881;SDS011;4477;48.736;9.176;2023-01-29T03:42:57;12.93;;;10.33;;
8881;SDS011;4477;48.736;9.176;2023-01-29T03:45:33;11.17;;;10.00;;
8881;SDS011;4477;48.736;9.176;2023-01-29T03:48:07;11.73;;;10.50;;
8881;SDS011;4477;48.736;9.176;2023-01-29T03:50:44;11.57;;;10.03;;
8881;SDS011;4477;48.736;9.176;2023-01-29T03:53:19;11.70;;;9.97;;
8881;SDS011;4477;48.736;9.176;2023-01-29T03:55:52;11.03;;;9.93;;
8881;SDS011;4477;48.736;9.176;2023-01-29T03:58:28;13.37;;;11.23;;
8881;SDS011;4477;48.736;9.176;2023-01-29T04:01:02;10.47;;;9.40;;
8881;SDS011;4477;48.736;9.176;2023-01-29T04:03:34;11.27;;;10.07;;
8881;SDS011;4477;48.736;9.176;2023-01-29T04:06:06;10.97;;;9.67;;
8881;SDS011;4477;48.736;9.176;2023-01-29T04:08:37;11.30;;;10.10;;
8881;SDS011;4477;48.736;9.176;2023-01-29T04:11:11;11.87;;;10.27;;
8881;SDS011;4477;48.736;9.176;2023-01-29T04:13:41;10.90;;;9.80;;
8881;SDS011;4477;48.736;9.176;2023-01-29T04:16:11;10.80;;;9.80;;
8881;SDS011;4477;48.736;9.176;2023-01-29T04:18:43;13.27;;;9.97;;
8881;SDS011;4477;48.736;9.176;2023-01-29T04:21:11;12.73;;;10.60;;
8881;SDS011;4477;48.736;9.176;2023-01-29T04:23:38;11.47;;;10.27;;
8881;SDS011;4477;48.736;9.176;2023-01-29T04:26:17;11.43;;;10.23;;
8881;SDS011;4477;48.736;9.176;2023-01-29T04:29:00;11.53;;;9.83;;
8881;SDS011;4477;48.736;9.176;2023-01-29T04:31:42;11.37;;;9.77;;
8881;SDS011;4477;48.736;9.176;2023-01-29T04:34:18;11.10;;;9.97;;
8881;SDS011;4477;48.736;9.176;2023-01-29T04:36:54;10.53;;;9.43;;
8881;SDS011;4477;48.736;9.176;2023-01-29T04:39:30;10.90;;;9.77;;
8881;SDS011;4477;48.736;9.176;2023-01-29T04:42:05;11.10;;;10.00;;
8881;SDS011;4477;48.736;9.176;2023-01-29T04:44:40;11.50;;;10.27;;
8881;SDS011;4477;48.736;9.176;2023-01-29T04:47:13;13.77;;;10.83;;
8881;SDS011;4477;48.736;9.176;2023-01-29T04:49:48;11.73;;;10.40;;
8881;SDS011;4477;48.736;9.176;2023-01-29T04:52:23;10.83;;;9.67;;
8881;SDS011;4477;48.736;9.176;2023-01-29T04:55:03;10.93;;;9.70;;
8881;SDS011;4477;48.736;9.176;2023-01-29T04:57:38;12.50;;;10.90;;
8881;SDS011;4477;48.736;9.176;2023-01-29T05:00:12;13.17;;;10.60;;
8881;SDS011;4477;48.736;9.176;2023-01-29T05:02:45;13.57;;;10.77;;
8881;SDS011;4477;48.736;9.176;2023-01-29T05:05:14;15.67;;;12.47;;
8881;SDS011;4477;48.736;9.176;2023-01-29T05:07:44;12.60;;;11.30;;
8881;SDS011;4477;48.736;9.176;2023-01-29T05:10:13;13.00;;;11.70;;
8881;SDS011;4477;48.736;9.176;2023-01-29T05:12:44;12.33;;;10.73;;
8881;SDS011;4477;48.736;9.176;2023-01-29T05:15:15;12.07;;;10.30;;
8881;SDS011;4477;48.736;9.176;2023-01-29T05:17:48;13.00;;;10.60;;
8881;SDS011;4477;48.736;9.176;2023-01-29T05:20:17;12.73;;;10.30;;
8881;SDS011;4477;48.736;9.176;2023-01-29T05:22:45;12.20;;;10.90;;
8881;SDS011;4477;48.736;9.176;2023-01-29T05:25:20;13.53;;;10.57;;
8881;SDS011;4477;48.736;9.176;2023-01-29T05:27:48;11.83;;;10.60;;
8881;SDS011;4477;48.736;9.176;2023-01-29T05:30:33;11.93;;;10.73;;
8881;SDS011;4477;48.736;9.176;2023-01-29T05:33:02;12.60;;;11.30;;
8881;SDS011;4477;48.736;9.176;2023-01-29T05:35:30;12.57;;;11.00;;
8881;SDS011;4477;48.736;9.176;2023-01-29T05:37:58;12.97;;;11.03;;
8881;SDS011;4477;48.736;9.176;2023-01-29T05:40:24;11.90;;;10.70;;
8881;SDS011;4477;48.736;9.176;2023-01-29T05:42:51;11.53;;;10.40;;
8881;SDS011;4477;48.736;9.176;2023-01-29T05:45:18;11.57;;;10.20;;
8881;SDS011;4477;48.736;9.176;2023-01-29T05:47:45;12.00;;;10.80;;
8881;SDS011;4477;48.736;9.176;2023-01-29T05:50:14;12.70;;;10.50;;
8881;SDS011;4477;48.736;9.176;2023-01-29T05:52:41;12.30;;;11.00;;
8881;SDS011;4477;48.736;9.176;2023-01-29T05:55:08;12.10;;;10.47;;
8881;SDS011;4477;48.736;9.176;2023-01-29T05:57:35;12.00;;;10.30;;
8881;SDS011;4477;48.736;9.176;2023-01-29T06:00:03;14.17;;;10.30;;
8881;SDS011;4477;48.736;9.176;2023-01-29T06:02:30;12.10;;;10.80;;
8881;SDS011;4477;48.736;9.176;2023-01-29T06:04:57;11.93;;;10.23;;
8881;SDS011;4477;48.736;9.176;2023-01-29T06:07:25;11.23;;;10.00;;
8881;SDS011;4477;48.736;9.176;2023-01-29T06:09:52;11.63;;;10.40;;
8881;SDS011;4477;48.736;9.176;2023-01-29T06:12:19;12.60;;;11.30;;
8881;SDS011;4477;48.736;9.176;2023-01-29T06:14:45;13.30;;;10.63;;
8881;SDS011;4477;48.736;9.176;2023-01-29T06:17:12;11.70;;;10.57;;
8881;SDS011;4477;48.736;9.176;2023-01-29T06:19:39;11.67;;;10.47;;
8881;SDS011;4477;48.736;9.176;2023-01-29T06:22:06;12.33;;;10.70;;
8881;SDS011;4477;48.736;9.176;2023-01-29T06:24:34;12.83;;;11.57;;
8881;SDS011;4477;48.736;9.176;2023-01-29T06:27:01;12.23;;;10.33;;
8881;SDS011;4477;48.736;9.176;2023-01-29T06:29:27;12.53;;;11.23;;
8881;SDS011;4477;48.736;9.176;2023-01-29T06:31:54;12.23;;;10.90;;
8881;SDS011;4477;48.736;9.176;2023-01-29T06:34:21;12.87;;;10.77;;
8881;SDS011;4477;48.736;9.176;2023-01-29T06:36:48;12.23;;;10.70;;
8881;SDS011;4477;48.736;9.176;2023-01-29T06:39:15;13.37;;;10.33;;
8881;SDS011;4477;48.736;9.176;2023-01-29T06:41:43;12.23;;;10.97;;
8881;SDS011;4477;48.736;9.176;2023-01-29T06:44:10;13.47;;;10.90;;
8881;SDS011;4477;48.736;9.176;2023-01-29T06:46:37;11.83;;;10.53;;
8881;SDS011;4477;48.736;9.176;2023-01-29T06:49:04;13.63;;;12.23;;
8881;SDS011;4477;48.736;9.176;2023-01-29T06:51:31;13.50;;;11.03;;
8881;SDS011;4477;48.736;9.176;2023-01-29T06:53:58;13.60;;;10.40;;
8881;SDS011;4477;48.736;9.176;2023-01-29T06:56:25;13.00;;;10.60;;
8881;SDS011;4477;48.736;9.176;2023-01-29T06:58:53;12.27;;;10.97;;
8881;SDS011;4477;48.736;9.176;2023-01-29T07:01:19;11.30;;;10.20;;
8881;SDS011;4477;48.736;9.176;2023-01-29T07:03:47;11.33;;;10.07;;
8881;SDS011;4477;48.736;9.176;2023-01-29T07:06:14;13.40;;;11.03;;
8881;SDS011;4477;48.736;9.176;2023-01-29T07:08:41;12.60;;;10.77;;
8881;SDS011;4477;48.736;9.176;2023-01-29T07:11:08;11.90;;;10.67;;
8881;SDS011;4477;48.736;9.176;2023-01-29T07:13:35;11.93;;;10.73;;
8881;SDS011;4477;48.736;9.176;2023-01-29T07:16:03;11.83;;;10.63;;
8881;SDS011;4477;48.736;9.176;2023-01-29T07:18:31;14.53;;;10.63;;
8881;SDS011;4477;48.736;9.176;2023-01-29T07:20:58;11.83;;;10.60;;
8881;SDS011;4477;48.736;9.176;2023-01-29T07:23:28;11.30;;;10.10;;
8881;SDS011;4477;48.736;9.176;2023-01-29T07:25:55;11.70;;;10.50;;
8881;SDS011;4477;48.736;9.176;2023-01-29T07:28:25;12.03;;;10.20;;
8881;SDS011;4477;48.736;9.176;2023-01-29T07:30:54;13.03;;;11.03;;
8881;SDS011;4477;48.736;9.176;2023-01-29T07:33:22;12.10;;;10.90;;
8881;SDS011;4477;48.736;9.176;2023-01-29T07:35:49;12.83;;;10.50;;
8881;SDS011;4477;48.736;9.176;2023-01-29T07:38:16;13.00;;;11.70;;
8881;SDS011;4477;48.736;9.176;2023-01-29T07:40:43;12.43;;;10.70;;
8881;SDS011;4477;48.736;9.176;2023-01-29T07:43:10;12.73;;;11.37;;
8881;SDS011;4477;48.736;9.176;2023-01-29T07:45:38;12.47;;;11.17;;
8881;SDS011;4477;48.736;9.176;2023-01-29T07:48:05;12.40;;;10.77;;
8881;SDS011;4477;48.736;9.176;2023-01-29T07:50:36;12.77;;;11.57;;
8881;SDS011;4477;48.736;9.176;2023-01-29T07:53:03;12.43;;;11.13;;
8881;SDS011;4477;48.736;9.176;2023-01-29T07:55:30;12.60;;;11.30;;
8881;SDS011;4477;48.736;9.176;2023-01-29T07:57:58;13.03;;;11.63;;
8881;SDS011;4477;48.736;9.176;2023-01-29T08:00:26;12.53;;;11.23;;
8881;SDS011;4477;48.736;9.176;2023-01-29T08:02:57;11.70;;;10.50;;
8881;SDS011;4477;48.736;9.176;2023-01-29T08:05:27;11.93;;;10.73;;
8881;SDS011;4477;48.736;9.176;2023-01-29T08:07:55;20.67;;;17.20;;
8881;SDS011;4477;48.736;9.176;2023-01-29T08:10:22;49.03;;;35.07;;
8881;SDS011;4477;48.736;9.176;2023-01-29T08:12:52;21.33;;;17.20;;
8881;SDS011;4477;48.736;9.176;2023-01-29T08:15:20;13.47;;;11.97;;
8881;SDS011;4477;48.736;9.176;2023-01-29T08:17:47;15.43;;;14.00;;
8881;SDS011;4477;48.736;9.176;2023-01-29T08:20:14;14.03;;;12.63;;
8881;SDS011;4477;48.736;9.176;2023-01-29T08:22:41;17.40;;;15.60;;
8881;SDS011;4477;48.736;9.176;2023-01-29T08:25:09;33.07;;;29.77;;
8881;SDS011;4477;48.736;9.176;2023-01-29T08:27:36;14.43;;;12.93;;
8881;SDS011;4477;48.736;9.176;2023-01-29T08:30:03;13.10;;;11.90;;
8881;SDS011;4477;48.736;9.176;2023-01-29T08:32:31;12.30;;;11.10;;
8881;SDS011;4477;48.736;9.176;2023-01-29T08:34:58;13.77;;;12.37;;
8881;SDS011;4477;48.736;9.176;2023-01-29T08:37:25;12.60;;;11.30;;
8881;SDS011;4477;48.736;9.176;2023-01-29T08:39:52;12.57;;;11.37;;
8881;SDS011;4477;48.736;9.176;2023-01-29T08:42:20;13.07;;;11.77;;
8881;SDS011;4477;48.736;9.176;2023-01-29T08:44:47;13.40;;;12.10;;
8881;SDS011;4477;48.736;9.176;2023-01-29T08:47:14;12.87;;;11.50;;
8881;SDS011;4477;48.736;9.176;2023-01-29T08:49:41;13.07;;;11.80;;
8881;SDS011;4477;48.736;9.176;2023-01-29T08:52:07;13.57;;;12.17;;
8881;SDS011;4477;48.736;9.176;2023-01-29T08:54:34;13.27;;;11.87;;
8881;SDS011;4477;48.736;9.176;2023-01-29T08:57:01;15.87;;;13.33;;
8881;SDS011;4477;48.736;9.176;2023-01-29T08:59:29;13.67;;;12.27;;
8881;SDS011;4477;48.736;9.176;2023-01-29T09:01:56;11.90;;;10.70;;
8881;SDS011;4477;48.736;9.176;2023-01-29T09:04:23;13.23;;;11.67;;
8881;SDS011;4477;48.736;9.176;2023-01-29T09:07:03;13.43;;;11.10;;
8881;SDS011;4477;48.736;9.176;2023-01-29T09:09:30;13.43;;;12.00;;
8881;SDS011;4477;48.736;9.176;2023-01-29T09:11:57;12.27;;;11.07;;
8881;SDS011;4477;48.736;9.176;2023-01-29T09:14:23;13.43;;;11.83;;
8881;SDS011;4477;48.736;9.176;2023-01-29T09:16:53;16.03;;;11.83;;
8881;SDS011;4477;48.736;9.176;2023-01-29T09:19:19;12.00;;;10.90;;
8881;SDS011;4477;48.736;9.176;2023-01-29T09:21:46;13.23;;;11.47;;
8881;SDS011;4477;48.736;9.176;2023-01-29T09:24:13;12.53;;;11.33;;
8881;SDS011;4477;48.736;9.176;2023-01-29T09:26:40;12.87;;;11.67;;
8881;SDS011;4477;48.736;9.176;2023-01-29T09:29:08;11.77;;;10.53;;
8881;SDS011;4477;48.736;9.176;2023-01-29T09:31:35;12.53;;;11.33;;
8881;SDS011;4477;48.736;9.176;2023-01-29T09:34:03;12.63;;;11.43;;
8881;SDS011;4477;48.736;9.176;2023-01-29T09:36:30;11.70;;;10.47;;
8881;SDS011;4477;48.736;9.176;2023-01-29T09:38:57;11.63;;;10.63;;
8881;SDS011;4477;48.736;9.176;2023-01-29T09:41:31;12.20;;;11.03;;
8881;SDS011;4477;48.736;9.176;2023-01-29T09:44:07;12.07;;;10.87;;
8881;SDS011;4477;48.736;9.176;2023-01-29T09:46:39;11.30;;;10.10;;
8881;SDS011;4477;48.736;9.176;2023-01-29T09:49:11;14.17;;;12.73;;
8881;SDS011;4477;48.736;9.176;2023-01-29T09:51:47;15.37;;;12.37;;
8881;SDS011;4477;48.736;9.176;2023-01-29T09:54:17;12.13;;;11.03;;
8881;SDS011;4477;48.736;9.176;2023-01-29T09:56:47;11.93;;;10.83;;
8881;SDS011;4477;48.736;9.176;2023-01-29T09:59:18;13.50;;;11.17;;
8881;SDS011;4477;48.736;9.176;2023-01-29T10:01:49;12.27;;;10.97;;
8881;SDS011;4477;48.736;9.176;2023-01-29T10:10:17;11.60;;;10.50;;
8881;SDS011;4477;48.736;9.176;2023-01-29T10:13:05;12.03;;;10.83;;
8881;SDS011;4477;48.736;9.176;2023-01-29T10:15:43;13.50;;;11.90;;
8881;SDS011;4477;48.736;9.176;2023-01-29T10:21:29;11.10;;;10.07;;
8881;SDS011;4477;48.736;9.176;2023-01-29T10:24:12;11.37;;;10.33;;
8881;SDS011;4477;48.736;9.176;2023-01-29T10:26:47;10.30;;;9.30;;
8881;SDS011;4477;48.736;9.176;2023-01-29T10:29:22;10.77;;;9.77;;
8881;SDS011;4477;48.736;9.176;2023-01-29T10:32:07;11.60;;;10.50;;
8881;SDS011;4477;48.736;9.176;2023-01-29T10:34:53;11.67;;;10.60;;
8881;SDS011;4477;48.736;9.176;2023-01-29T10:37:30;10.60;;;9.60;;
8881;SDS011;4477;48.736;9.176;2023-01-29T10:40:15;10.53;;;9.53;;
8881;SDS011;4477;48.736;9.176;2023-01-29T10:42:48;10.60;;;9.60;;
8881;SDS011;4477;48.736;9.176;2023-01-29T10:45:25;12.57;;;11.30;;
8881;SDS011;4477;48.736;9.176;2023-01-29T10:51:25;11.93;;;9.93;;
8881;SDS011;4477;48.736;9.176;2023-01-29T11:12:44;11.63;;;10.43;;
8881;SDS011;4477;48.736;9.176;2023-01-29T11:18:00;11.43;;;9.60;;
8881;SDS011;4477;48.736;9.176;2023-01-29T11:20:28;10.53;;;9.53;;
8881;SDS011;4477;48.736;9.176;2023-01-29T11:35:55;10.70;;;9.70;;
8881;SDS011;4477;48.736;9.176;2023-01-29T11:38:23;11.63;;;10.53;;
8881;SDS011;4477;48.736;9.176;2023-01-29T11:43:29;11.40;;;10.30;;
8881;SDS011;4477;48.736;9.176;2023-01-29T11:45:57;12.93;;;10.83;;
8881;SDS011;4477;48.736;9.176;2023-01-29T11:48:28;11.97;;;10.87;;
8881;SDS011;4477;48.736;9.176;2023-01-29T11:51:00;11.70;;;10.60;;
8881;SDS011;4477;48.736;9.176;2023-01-29T11:53:33;12.47;;;11.37;;
8881;SDS011;4477;48.736;9.176;2023-01-29T11:56:13;11.93;;;10.50;;
8881;SDS011;4477;48.736;9.176;2023-01-29T11:58:43;11.13;;;10.13;;
8881;SDS011;4477;48.736;9.176;2023-01-29T12:01:13;12.00;;;10.97;;
8881;SDS011;4477;48.736;9.176;2023-01-29T12:03:43;10.80;;;9.80;;
8881;SDS011;4477;48.736;9.176;2023-01-29T12:06:16;12.10;;;11.00;;
8881;SDS011;4477;48.736;9.176;2023-01-29T12:08:51;11.90;;;10.70;;
8881;SDS011;4477;48.736;9.176;2023-01-29T12:11:23;18.93;;;10.77;;
8881;SDS011;4477;48.736;9.176;2023-01-29T12:13:53;12.80;;;11.40;;
8881;SDS011;4477;48.736;9.176;2023-01-29T12:16:22;14.50;;;13.13;;
8881;SDS011;4477;48.736;9.176;2023-01-29T12:18:54;11.97;;;10.77;;
8881;SDS011;4477;48.736;9.176;2023-01-29T12:21:31;11.87;;;10.13;;
8881;SDS011;4477;48.736;9.176;2023-01-29T12:24:02;19.83;;;15.57;;
8881;SDS011;4477;48.736;9.176;2023-01-29T12:26:36;12.77;;;11.57;;
8881;SDS011;4477;48.736;9.176;2023-01-29T12:29:14;11.27;;;10.23;;
8881;SDS011;4477;48.736;9.176;2023-01-29T12:31:50;9.90;;;9.00;;
8881;SDS011;4477;48.736;9.176;2023-01-29T12:34:23;11.27;;;10.07;;
8881;SDS011;4477;48.736;9.176;2023-01-29T12:37:02;9.83;;;8.93;;
8881;SDS011;4477;48.736;9.176;2023-01-29T12:39:36;9.83;;;8.93;;
8881;SDS011;4477;48.736;9.176;2023-01-29T12:42:04;9.93;;;8.80;;
8881;SDS011;4477;48.736;9.176;2023-01-29T12:44:35;10.57;;;9.57;;
8881;SDS011;4477;48.736;9.176;2023-01-29T12:47:07;9.47;;;8.53;;
8881;SDS011;4477;48.736;9.176;2023-01-29T12:49:42;9.27;;;8.37;;
8881;SDS011;4477;48.736;9.176;2023-01-29T12:52:17;9.20;;;8.33;;
8881;SDS011;4477;48.736;9.176;2023-01-29T12:54:48;9.50;;;8.63;;
8881;SDS011;4477;48.736;9.176;2023-01-29T12:57:22;9.77;;;8.83;;
8881;SDS011;4477;48.736;9.176;2023-01-29T12:59:51;8.83;;;7.27;;
8881;SDS011;4477;48.736;9.176;2023-01-29T13:02:25;8.53;;;7.73;;
8881;SDS011;4477;48.736;9.176;2023-01-29T13:05:01;9.00;;;8.20;;
8881;SDS011;4477;48.736;9.176;2023-01-29T13:07:36;8.13;;;7.43;;
8881;SDS011;4477;48.736;9.176;2023-01-29T13:10:11;8.83;;;8.03;;
8881;SDS011;4477;48.736;9.176;2023-01-29T13:12:43;7.47;;;6.77;;
8881;SDS011;4477;48.736;9.176;2023-01-29T13:15:20;8.43;;;7.53;;
8881;SDS011;4477;48.736;9.176;2023-01-29T13:17:50;8.13;;;7.33;;
8881;SDS011;4477;48.736;9.176;2023-01-29T13:20:22;8.23;;;7.53;;
8881;SDS011;4477;48.736;9.176;2023-01-29T13:22:53;7.90;;;7.20;;
8881;SDS011;4477;48.736;9.176;2023-01-29T13:25:23;8.80;;;8.00;;
8881;SDS011;4477;48.736;9.176;2023-01-29T13:27:50;8.57;;;7.77;;
8881;SDS011;4477;48.736;9.176;2023-01-29T13:30:24;9.70;;;7.27;;
8881;SDS011;4477;48.736;9.176;2023-01-29T13:32:53;9.47;;;8.57;;
8881;SDS011;4477;48.736;9.176;2023-01-29T13:35:32;8.40;;;7.60;;
8881;SDS011;4477;48.736;9.176;2023-01-29T13:38:02;9.00;;;8.10;;
8881;SDS011;4477;48.736;9.176;2023-01-29T13:40:31;8.67;;;7.87;;
8881;SDS011;4477;48.736;9.176;2023-01-29T13:42:59;9.60;;;7.20;;
8881;SDS011;4477;48.736;9.176;2023-01-29T13:45:29;8.47;;;6.70;;
8881;SDS011;4477;48.736;9.176;2023-01-29T13:48:08;8.57;;;7.77;;
8881;SDS011;4477;48.736;9.176;2023-01-29T13:50:37;7.50;;;6.87;;
8881;SDS011;4477;48.736;9.176;2023-01-29T13:53:16;8.00;;;7.30;;
8881;SDS011;4477;48.736;9.176;2023-01-29T13:55:45;11.27;;;10.17;;
8881;SDS011;4477;48.736;9.176;2023-01-29T13:58:13;9.10;;;8.20;;
8881;SDS011;4477;48.736;9.176;2023-01-29T14:06:35;25.27;;;22.93;;
8881;SDS011;4477;48.736;9.176;2023-01-29T14:15:18;10.53;;;9.53;;
8881;SDS011;4477;48.736;9.176;2023-01-29T14:18:02;10.80;;;9.73;;
8881;SDS011;4477;48.736;9.176;2023-01-29T14:23:46;10.13;;;9.13;;
8881;SDS011;4477;48.736;9.176;2023-01-29T14:26:19;10.67;;;9.67;;
8881;SDS011;4477;48.736;9.176;2023-01-29T14:28:58;9.63;;;8.73;;
8881;SDS011;4477;48.736;9.176;2023-01-29T14:31:28;11.00;;;9.90;;
8881;SDS011;4477;48.736;9.176;2023-01-29T14:34:05;16.60;;;10.13;;
8881;SDS011;4477;48.736;9.176;2023-01-29T14:36:39;12.57;;;10.63;;
8881;SDS011;4477;48.736;9.176;2023-01-29T14:39:17;12.77;;;10.87;;
8881;SDS011;4477;48.736;9.176;2023-01-29T14:41:53;11.43;;;9.97;;
8881;SDS011;4477;48.736;9.176;2023-01-29T14:53:21;12.47;;;10.70;;
8881;SDS011;4477;48.736;9.176;2023-01-29T14:55:54;12.93;;;11.57;;
8881;SDS011;4477;48.736;9.176;2023-01-29T14:58:27;14.93;;;12.13;;
8881;SDS011;4477;48.736;9.176;2023-01-29T15:01:02;13.07;;;11.70;;
8881;SDS011;4477;48.736;9.176;2023-01-29T15:03:34;14.03;;;12.07;;
8881;SDS011;4477;48.736;9.176;2023-01-29T15:06:07;12.80;;;11.50;;
8881;SDS011;4477;48.736;9.176;2023-01-29T15:08:42;12.93;;;11.40;;
8881;SDS011;4477;48.736;9.176;2023-01-29T15:11:15;16.40;;;13.93;;
8881;SDS011;4477;48.736;9.176;2023-01-29T15:14:02;20.00;;;16.73;;
8881;SDS011;4477;48.736;9.176;2023-01-29T15:16:58;15.63;;;14.10;;
8881;SDS011;4477;48.736;9.176;2023-01-29T15:19:42;12.80;;;11.50;;
8881;SDS011;4477;48.736;9.176;2023-01-29T15:22:12;13.70;;;12.30;;
8881;SDS011;4477;48.736;9.176;2023-01-29T15:24:40;14.07;;;11.63;;
8881;SDS011;4477;48.736;9.176;2023-01-29T15:27:10;14.63;;;13.13;;
8881;SDS011;4477;48.736;9.176;2023-01-29T15:29:39;15.70;;;14.00;;
8881;SDS011;4477;48.736;9.176;2023-01-29T15:32:11;14.20;;;12.20;;
8881;SDS011;4477;48.736;9.176;2023-01-29T15:34:44;16.23;;;14.53;;
8881;SDS011;4477;48.736;9.176;2023-01-29T15:37:24;18.53;;;16.53;;
8881;SDS011;4477;48.736;9.176;2023-01-29T15:39:53;25.37;;;21.83;;
8881;SDS011;4477;48.736;9.176;2023-01-29T15:42:20;22.47;;;16.50;;
8881;SDS011;4477;48.736;9.176;2023-01-29T15:44:50;18.87;;;15.13;;
8881;SDS011;4477;48.736;9.176;2023-01-29T15:47:19;15.83;;;14.07;;
8881;SDS011;4477;48.736;9.176;2023-01-29T15:49:49;16.83;;;13.87;;
8881;SDS011;4477;48.736;9.176;2023-01-29T15:52:18;16.20;;;14.17;;
8881;SDS011;4477;48.736;9.176;2023-01-29T15:54:50;15.70;;;13.97;;
8881;SDS011;4477;48.736;9.176;2023-01-29T15:57:19;16.10;;;13.53;;
8881;SDS011;4477;48.736;9.176;2023-01-29T15:59:48;23.00;;;18.60;;
8881;SDS011;4477;48.736;9.176;2023-01-29T16:02:19;16.90;;;14.67;;
8881;SDS011;4477;48.736;9.176;2023-01-29T16:04:54;18.77;;;16.63;;
8881;SDS011;4477;48.736;9.176;2023-01-29T16:07:21;17.57;;;15.60;;
8881;SDS011;4477;48.736;9.176;2023-01-29T16:09:48;15.57;;;13.07;;
8881;SDS011;4477;48.736;9.176;2023-01-29T16:12:15;19.33;;;15.20;;
8881;SDS011;4477;48.736;9.176;2023-01-29T16:14:42;22.10;;;18.83;;
8881;SDS011;4477;48.736;9.176;2023-01-29T16:17:19;19.97;;;17.73;;
8881;SDS011;4477;48.736;9.176;2023-01-29T16:19:55;22.10;;;18.83;;
8881;SDS011;4477;48.736;9.176;2023-01-29T16:22:22;20.23;;;17.63;;
8881;SDS011;4477;48.736;9.176;2023-01-29T16:24:50;21.27;;;18.17;;
8881;SDS011;4477;48.736;9.176;2023-01-29T16:27:17;23.27;;;19.97;;
8881;SDS011;4477;48.736;9.176;2023-01-29T16:29:44;27.17;;;23.20;;
8881;SDS011;4477;48.736;9.176;2023-01-29T16:32:11;24.57;;;21.13;;